Air Quality Table

TIMESTAMP NO2 O3 PM2.5 TEMP HUM AIRPRES WS WD NO
2022-08-19 23:00 2.13 µg/m3 84.45 µg/m3 2.65 µg/m3 26.56 °C N/A 1,000.41 mbar 2.46 m/s 256 Deg 0.46 µg/m3
2022-08-19 22:00 2.49 µg/m3 85.52 µg/m3 3.69 µg/m3 26.96 °C N/A 1,000.09 mbar 2.79 m/s 256.58 Deg 0.52 µg/m3
2022-08-19 21:00 3.63 µg/m3 85.48 µg/m3 4.96 µg/m3 27.29 °C N/A 1,000.03 mbar 2.43 m/s 348.14 Deg 0.52 µg/m3
2022-08-19 20:00 5.2 µg/m3 86.23 µg/m3 5.24 µg/m3 27.61 °C N/A 999.50 mbar 1.78 m/s 330.27 Deg 0.49 µg/m3
2022-08-19 19:00 3.61 µg/m3 89.47 µg/m3 6.94 µg/m3 28.34 °C N/A 998.77 mbar 1.97 m/s 335.4 Deg 0.59 µg/m3
2022-08-19 18:00 4.18 µg/m3 90.11 µg/m3 9.04 µg/m3 29.52 °C N/A 998.57 mbar 1.83 m/s 329.27 Deg 0.73 µg/m3
2022-08-19 17:00 5.31 µg/m3 88.74 µg/m3 10.25 µg/m3 29.94 °C N/A 998.74 mbar 2.23 m/s 345.53 Deg 0.69 µg/m3
2022-08-19 16:00 5.74 µg/m3 90.2 µg/m3 12.33 µg/m3 31.29 °C N/A 998.49 mbar 2.19 m/s 173.6 Deg 0.94 µg/m3
2022-08-19 15:00 4.71 µg/m3 89.12 µg/m3 12.94 µg/m3 31.99 °C N/A 998.41 mbar 1.99 m/s 328.47 Deg 1.06 µg/m3
2022-08-19 14:00 4.03 µg/m3 84.74 µg/m3 10.39 µg/m3 31.66 °C N/A 998.77 mbar 1.86 m/s 332.88 Deg 0.84 µg/m3
2022-08-19 13:00 4.52 µg/m3 84.37 µg/m3 15.47 µg/m3 30.79 °C N/A 998.86 mbar 1.77 m/s 333.87 Deg 0.74 µg/m3
2022-08-19 12:00 6.23 µg/m3 84.96 µg/m3 14.32 µg/m3 32.18 °C N/A 998.81 mbar 1.37 m/s 237.43 Deg 1.09 µg/m3
2022-08-19 11:00 6.01 µg/m3 80.58 µg/m3 12.52 µg/m3 31 °C N/A 999.38 mbar 1.36 m/s 18.26 Deg 0.98 µg/m3
2022-08-19 10:00 5.75 µg/m3 76.89 µg/m3 14.17 µg/m3 30.48 °C N/A 999.37 mbar 1.45 m/s 256.65 Deg 1.08 µg/m3
2022-08-19 09:00 5.31 µg/m3 70.5 µg/m3 9.97 µg/m3 30.24 °C N/A 999.41 mbar 1.5 m/s 323.94 Deg 0.84 µg/m3
2022-08-19 08:00 7.11 µg/m3 60.89 µg/m3 8.48 µg/m3 29.43 °C N/A 998.90 mbar 1.05 m/s 339.18 Deg 0.78 µg/m3
2022-08-19 07:00 12.72 µg/m3 49.72 µg/m3 9.16 µg/m3 28.69 °C N/A 998.76 mbar 0.93 m/s 304.03 Deg 0.29 µg/m3
2022-08-19 06:00 21.32 µg/m3 25.81 µg/m3 7.98 µg/m3 27.38 °C N/A 998.42 mbar 0.52 m/s 278.38 Deg 0.97 µg/m3
2022-08-19 05:00 11.2 µg/m3 39.18 µg/m3 8.21 µg/m3 27.63 °C N/A 998.18 mbar 0.46 m/s 223.02 Deg 0.72 µg/m3
2022-08-19 04:00 6.06 µg/m3 41.53 µg/m3 6.09 µg/m3 27.44 °C N/A 997.92 mbar 0.58 m/s 251.55 Deg 0.82 µg/m3
2022-08-19 03:00 13.01 µg/m3 36.17 µg/m3 6.96 µg/m3 27.49 °C N/A 997.80 mbar 0.83 m/s 211.12 Deg 5.61 µg/m3
2022-08-19 02:00 4.08 µg/m3 49.88 µg/m3 7.32 µg/m3 29.14 °C N/A 998.55 mbar 0.67 m/s 298.47 Deg 1.32 µg/m3
2022-08-19 01:00 3.43 µg/m3 53.46 µg/m3 6.74 µg/m3 29.17 °C N/A 998.45 mbar 1.26 m/s 195.78 Deg 0.57 µg/m3
2022-08-19 00:00 3.38 µg/m3 54.44 µg/m3 6.26 µg/m3 29.25 °C N/A 997.79 mbar 1.48 m/s 209.39 Deg 0.64 µg/m3
2022-08-18 23:00 3.15 µg/m3 54.36 µg/m3 7.17 µg/m3 29.22 °C N/A 997.95 mbar 1.64 m/s 222.28 Deg 0.59 µg/m3
2022-08-18 22:00 3.99 µg/m3 57.12 µg/m3 7.32 µg/m3 29.87 °C N/A 997.80 mbar 1.71 m/s 193.65 Deg 0.51 µg/m3
2022-08-18 21:00 5.56 µg/m3 56.28 µg/m3 7.64 µg/m3 30.07 °C N/A 997.78 mbar 1.91 m/s 176.17 Deg 0.6 µg/m3
2022-08-18 20:00 7.36 µg/m3 56.26 µg/m3 8.65 µg/m3 30.22 °C N/A 997.72 mbar 2.07 m/s 186.33 Deg 0.95 µg/m3
2022-08-18 19:00 9.69 µg/m3 57.98 µg/m3 9.65 µg/m3 31.25 °C N/A 997.45 mbar 2.05 m/s 183.68 Deg 1.25 µg/m3
2022-08-18 18:00 9.01 µg/m3 64.45 µg/m3 9.69 µg/m3 32.58 °C N/A 997.64 mbar 2.58 m/s 185.82 Deg 1.76 µg/m3
2022-08-18 17:00 7.81 µg/m3 66.45 µg/m3 10.33 µg/m3 33.65 °C N/A 998.01 mbar 2.61 m/s 194.15 Deg 1.8 µg/m3
2022-08-18 16:00 7.45 µg/m3 65.18 µg/m3 9.48 µg/m3 33.66 °C N/A 998.33 mbar 2.98 m/s 201.33 Deg 1.84 µg/m3
2022-08-18 15:00 6.39 µg/m3 62.29 µg/m3 11.92 µg/m3 33.23 °C N/A 998.74 mbar 2.62 m/s 192.98 Deg 1.91 µg/m3
2022-08-18 14:00 6.44 µg/m3 66.94 µg/m3 11.84 µg/m3 34.62 °C N/A 999.15 mbar 3.06 m/s 206.17 Deg 1.59 µg/m3
2022-08-18 13:00 7.46 µg/m3 65.55 µg/m3 14.36 µg/m3 34.75 °C N/A 999.51 mbar 2.97 m/s 192.15 Deg 2.39 µg/m3
2022-08-18 12:00 10.85 µg/m3 65.78 µg/m3 15.96 µg/m3 35.55 °C N/A 999.68 mbar 2.77 m/s 192.97 Deg 3.01 µg/m3
2022-08-18 11:00 13.1 µg/m3 67.47 µg/m3 14.96 µg/m3 35.52 °C N/A 999.78 mbar 2.54 m/s 198.13 Deg 2.7 µg/m3
2022-08-18 10:00 11.88 µg/m3 65.52 µg/m3 16.59 µg/m3 34.77 °C N/A 1,000.27 mbar 1.72 m/s 192.81 Deg 2.73 µg/m3
2022-08-18 09:00 9.1 µg/m3 62.83 µg/m3 14.28 µg/m3 32.96 °C N/A 1,000.06 mbar 1.96 m/s 218.88 Deg 2.22 µg/m3
2022-08-18 08:00 12.35 µg/m3 55.35 µg/m3 8.38 µg/m3 31.47 °C N/A 1,000.17 mbar 1.81 m/s 225.25 Deg 2.86 µg/m3
2022-08-18 07:00 10.82 µg/m3 55.26 µg/m3 7.06 µg/m3 29.05 °C N/A 1,000.12 mbar 1.43 m/s 224.08 Deg 1.66 µg/m3
2022-08-18 06:00 13.51 µg/m3 42.58 µg/m3 5.83 µg/m3 27.82 °C N/A 999.59 mbar 1.44 m/s 206.92 Deg 1.56 µg/m3
2022-08-18 05:00 12.67 µg/m3 38.62 µg/m3 5.77 µg/m3 27.71 °C N/A 999.35 mbar 1.22 m/s 195.13 Deg 0.97 µg/m3
2022-08-18 04:00 10.11 µg/m3 41.48 µg/m3 6.02 µg/m3 27.76 °C N/A 999.65 mbar 0.55 m/s 217.88 Deg 0.73 µg/m3
2022-08-18 03:00 13.96 µg/m3 47.11 µg/m3 9.89 µg/m3 28.09 °C N/A 999.62 mbar 1.16 m/s 173.05 Deg 6.87 µg/m3
2022-08-18 02:00 12.13 µg/m3 41.33 µg/m3 6.77 µg/m3 28.25 °C N/A 999.71 mbar 1.41 m/s 183.5 Deg 1.16 µg/m3
2022-08-18 01:00 9.55 µg/m3 42.41 µg/m3 7.4 µg/m3 28.45 °C N/A 999.95 mbar 1.35 m/s 178.72 Deg 0.51 µg/m3
2022-08-18 00:00 8.11 µg/m3 47.59 µg/m3 8.29 µg/m3 28.93 °C N/A 1,000.09 mbar 1.53 m/s 178.78 Deg 0.46 µg/m3
2022-08-17 23:00 8.74 µg/m3 46.88 µg/m3 8.17 µg/m3 29.1 °C N/A 1,000.29 mbar 1.5 m/s 181.82 Deg 0.63 µg/m3
2022-08-17 22:00 19.51 µg/m3 37.52 µg/m3 10.2 µg/m3 29.43 °C N/A 1,000.34 mbar 1.45 m/s 180.6 Deg 0.89 µg/m3
2022-08-17 21:00 17.28 µg/m3 37.44 µg/m3 9.06 µg/m3 30.02 °C N/A 1,000.29 mbar 1.5 m/s 176.55 Deg 0.98 µg/m3
2022-08-17 20:00 16.56 µg/m3 47.97 µg/m3 8.89 µg/m3 30.95 °C N/A 999.94 mbar 1.41 m/s 175.72 Deg 1.15 µg/m3
2022-08-17 19:00 12.95 µg/m3 55.46 µg/m3 11.9 µg/m3 31.95 °C N/A 999.59 mbar 1.77 m/s 179.42 Deg 1.7 µg/m3
2022-08-17 18:00 13.75 µg/m3 64.85 µg/m3 11.71 µg/m3 33.09 °C N/A 999.69 mbar 1.63 m/s 191.57 Deg 1.46 µg/m3
2022-08-17 17:00 17.33 µg/m3 103.76 µg/m3 14.32 µg/m3 34.19 °C N/A 999.87 mbar 1.64 m/s 226.42 Deg 1.18 µg/m3
2022-08-17 16:00 19.17 µg/m3 109.04 µg/m3 16.21 µg/m3 35.75 °C N/A 999.84 mbar 1.74 m/s 270.23 Deg 1.52 µg/m3
2022-08-17 15:00 17.92 µg/m3 116.76 µg/m3 15.43 µg/m3 36.27 °C N/A 999.86 mbar 1.65 m/s 182.22 Deg 1.39 µg/m3
2022-08-17 14:00 12.55 µg/m3 107.14 µg/m3 14.81 µg/m3 36.55 °C N/A 1,000.02 mbar 1.39 m/s 74.67 Deg 0.96 µg/m3
2022-08-17 13:00 18.01 µg/m3 109.64 µg/m3 15.43 µg/m3 37.04 °C N/A 1,000.11 mbar 1.14 m/s 162.84 Deg 1.73 µg/m3
2022-08-17 12:00 16.89 µg/m3 89.38 µg/m3 18.14 µg/m3 35.56 °C N/A 1,000.49 mbar 1.27 m/s 231.91 Deg 2.18 µg/m3
2022-08-17 11:00 10.25 µg/m3 88.88 µg/m3 18.72 µg/m3 36.69 °C N/A 1,000.69 mbar 0.96 m/s 244.52 Deg 1.06 µg/m3
2022-08-17 10:00 11.37 µg/m3 85.88 µg/m3 21.05 µg/m3 35.48 °C N/A 1,000.70 mbar 0.9 m/s 258.92 Deg 1.16 µg/m3
2022-08-17 09:00 28.73 µg/m3 69.27 µg/m3 16.19 µg/m3 33.58 °C N/A 1,000.82 mbar 0.7 m/s 244.81 Deg 3.03 µg/m3
2022-08-17 08:00 29.41 µg/m3 35.14 µg/m3 19.84 µg/m3 29.78 °C N/A 1,001.02 mbar 0.57 m/s 218.64 Deg 4.88 µg/m3
2022-08-17 07:00 40.51 µg/m3 11.79 µg/m3 11.05 µg/m3 27.72 °C N/A 1,000.78 mbar 0.29 m/s 233.73 Deg 21.55 µg/m3
2022-08-17 06:00 36.88 µg/m3 10.29 µg/m3 7.95 µg/m3 26.77 °C N/A 1,000.60 mbar 0.37 m/s 276.88 Deg 10.28 µg/m3
2022-08-17 05:00 26.06 µg/m3 14.68 µg/m3 5.75 µg/m3 26.92 °C N/A 1,000.41 mbar 0.4 m/s 195.6 Deg 1.74 µg/m3
2022-08-17 04:00 11.36 µg/m3 54.35 µg/m3 5.28 µg/m3 28 °C N/A 1,000.25 mbar 0.45 m/s 243.44 Deg 0.8 µg/m3
2022-08-17 03:00 16.29 µg/m3 67.84 µg/m3 5.96 µg/m3 27.54 °C N/A 1,000.38 mbar 0.66 m/s 313.06 Deg 6.2 µg/m3
2022-08-17 02:00 4.34 µg/m3 57.55 µg/m3 6.53 µg/m3 27.43 °C N/A 1,000.54 mbar 0.87 m/s 265.2 Deg 1.27 µg/m3
2022-08-17 01:00 14.95 µg/m3 45.4 µg/m3 6.6 µg/m3 27.77 °C N/A 1,001.03 mbar 1.32 m/s 254.23 Deg 0.72 µg/m3
2022-08-17 00:00 19.31 µg/m3 36.1 µg/m3 10.59 µg/m3 27.16 °C N/A 1,001.32 mbar 0.59 m/s 238.97 Deg 0.52 µg/m3
2022-08-16 23:00 28.58 µg/m3 17.29 µg/m3 8.23 µg/m3 27.66 °C N/A 1,001.42 mbar 0.65 m/s 238.08 Deg 5.63 µg/m3
2022-08-16 22:00 12.37 µg/m3 34.31 µg/m3 9.74 µg/m3 28.32 °C N/A 1,001.39 mbar 0.53 m/s 220.03 Deg 0.83 µg/m3
2022-08-16 21:00 11.53 µg/m3 45.97 µg/m3 8.29 µg/m3 28.98 °C N/A 1,001.24 mbar 0.81 m/s 235.93 Deg 0.74 µg/m3
2022-08-16 20:00 9.75 µg/m3 54.1 µg/m3 9.35 µg/m3 29.61 °C N/A 1,000.80 mbar 1.07 m/s 262.42 Deg 0.6 µg/m3
2022-08-16 19:00 8.11 µg/m3 77 µg/m3 7.87 µg/m3 31.44 °C N/A 1,000.23 mbar 0.83 m/s 286.32 Deg 0.65 µg/m3
2022-08-16 18:00 4.5 µg/m3 98.63 µg/m3 9.65 µg/m3 32.46 °C N/A 1,000.10 mbar 0.83 m/s 255.35 Deg 0.57 µg/m3
2022-08-16 17:00 3.92 µg/m3 86.77 µg/m3 10.03 µg/m3 32.88 °C N/A 1,000.26 mbar 1.33 m/s 292.15 Deg 0.72 µg/m3
2022-08-16 16:00 5.44 µg/m3 89.58 µg/m3 9.69 µg/m3 33.56 °C N/A 1,000.51 mbar 1.94 m/s 297.2 Deg 0.87 µg/m3
2022-08-16 15:00 5.15 µg/m3 86.02 µg/m3 10.33 µg/m3 33.83 °C N/A 1,000.55 mbar 1.93 m/s 255.78 Deg 0.86 µg/m3
2022-08-16 14:00 6.57 µg/m3 86.92 µg/m3 11.07 µg/m3 34.34 °C N/A 1,000.43 mbar 1.75 m/s 232.6 Deg 1.25 µg/m3
2022-08-16 13:00 8.13 µg/m3 87.28 µg/m3 11.63 µg/m3 34.38 °C N/A 1,000.37 mbar 2.06 m/s 230.12 Deg 1.63 µg/m3
2022-08-16 12:00 7.82 µg/m3 83.8 µg/m3 10.03 µg/m3 34.23 °C N/A 1,000.24 mbar 2.01 m/s 221.1 Deg 1.79 µg/m3
2022-08-16 11:00 7.7 µg/m3 73.31 µg/m3 2.2 µg/m3 33.07 °C N/A 1,000.21 mbar 1.55 m/s 226.33 Deg 2.05 µg/m3
2022-08-16 10:00 10.22 µg/m3 68.16 µg/m3 -0.22 µg/m3 32.32 °C N/A 1,000.36 mbar 1.46 m/s 223.09 Deg 4.54 µg/m3
2022-08-16 09:00 6.46 µg/m3 73.16 µg/m3 4.24 µg/m3 31.26 °C N/A 999.89 mbar 1.22 m/s 217.58 Deg 1.23 µg/m3
2022-08-16 08:00 7.9 µg/m3 79.22 µg/m3 7.7 µg/m3 29.24 °C N/A 999.53 mbar 1.58 m/s 208.92 Deg 1.44 µg/m3
2022-08-16 07:00 11.25 µg/m3 77.44 µg/m3 7.47 µg/m3 27.99 °C N/A 999.43 mbar 1.91 m/s 220.78 Deg 1.35 µg/m3
2022-08-16 06:00 15.31 µg/m3 67.42 µg/m3 4.81 µg/m3 27.18 °C N/A 999.51 mbar 1.47 m/s 235.12 Deg 1.27 µg/m3
2022-08-16 05:00 12.64 µg/m3 54.92 µg/m3 5.36 µg/m3 27.11 °C N/A 999.64 mbar 0.86 m/s 232.86 Deg 0.73 µg/m3
2022-08-16 04:00 7.77 µg/m3 53.94 µg/m3 5.11 µg/m3 27.05 °C N/A 999.71 mbar 0.7 m/s 216.32 Deg 0.65 µg/m3
2022-08-16 03:00 12.9 µg/m3 45.46 µg/m3 3.73 µg/m3 26.87 °C N/A 999.38 mbar 1.33 m/s 214.72 Deg 4.26 µg/m3
2022-08-16 02:00 8.94 µg/m3 45.6 µg/m3 5.39 µg/m3 27.21 °C N/A 1,000.08 mbar 0.66 m/s 199.3 Deg 1.25 µg/m3
2022-08-16 01:00 5.76 µg/m3 55.53 µg/m3 8.8 µg/m3 27.73 °C N/A 1,001.13 mbar 0.69 m/s 323.59 Deg 0.71 µg/m3
2022-08-16 00:00 6.86 µg/m3 54.81 µg/m3 5.64 µg/m3 27.82 °C N/A 1,001.66 mbar 0.89 m/s 323.47 Deg 0.56 µg/m3
2022-08-15 23:00 6.32 µg/m3 58.15 µg/m3 11.22 µg/m3 27.96 °C N/A 1,000.65 mbar 0.81 m/s 241.43 Deg 0.83 µg/m3
2022-08-15 22:00 7.41 µg/m3 60.77 µg/m3 7.42 µg/m3 28.11 °C N/A 999.82 mbar 1.39 m/s 200.39 Deg 1.18 µg/m3
2022-08-15 21:00 6.15 µg/m3 66.58 µg/m3 5.39 µg/m3 28.26 °C N/A 999.28 mbar 1.49 m/s 191.33 Deg 1.09 µg/m3
2022-08-15 20:00 7.15 µg/m3 72.39 µg/m3 5.77 µg/m3 28.46 °C N/A 998.28 mbar 1.82 m/s 177.63 Deg 1 µg/m3
2022-08-15 19:00 6.23 µg/m3 77.15 µg/m3 5.96 µg/m3 28.79 °C N/A 997.67 mbar 2.22 m/s 187.62 Deg 0.85 µg/m3
2022-08-15 18:00 4.74 µg/m3 82.68 µg/m3 6.3 µg/m3 29.53 °C N/A 997.63 mbar 2.46 m/s 192.13 Deg 0.83 µg/m3
2022-08-15 17:00 3.86 µg/m3 88.32 µg/m3 7.17 µg/m3 30.34 °C N/A 998.02 mbar 2.61 m/s 195.9 Deg 0.88 µg/m3
2022-08-15 16:00 3.44 µg/m3 87.87 µg/m3 8.82 µg/m3 30.77 °C N/A 998.24 mbar 2.26 m/s 205.78 Deg 0.87 µg/m3
2022-08-15 15:00 3.29 µg/m3 91.92 µg/m3 8.27 µg/m3 30.93 °C N/A 998.33 mbar 2.78 m/s 196.05 Deg 0.87 µg/m3
2022-08-15 14:00 3.12 µg/m3 99.81 µg/m3 6.6 µg/m3 30.96 °C N/A 998.53 mbar 2.82 m/s 204.85 Deg 0.68 µg/m3
2022-08-15 13:00 3.8 µg/m3 95.5 µg/m3 7.74 µg/m3 31.56 °C N/A 998.50 mbar 2.49 m/s 203.53 Deg 0.85 µg/m3
2022-08-15 12:00 4.5 µg/m3 95.92 µg/m3 9.16 µg/m3 31.8 °C N/A 998.64 mbar 1.85 m/s 193.35 Deg 0.83 µg/m3
2022-08-15 11:00 4.62 µg/m3 92.69 µg/m3 9.91 µg/m3 30.78 °C N/A 998.85 mbar 1.89 m/s 198.38 Deg 1.01 µg/m3
2022-08-15 10:00 4.47 µg/m3 94.27 µg/m3 7.64 µg/m3 30.28 °C N/A 998.82 mbar 1.62 m/s 176.65 Deg 1 µg/m3
2022-08-15 09:00 6.33 µg/m3 90.89 µg/m3 8.04 µg/m3 29.28 °C N/A 998.64 mbar 1.69 m/s 178.08 Deg 1.09 µg/m3
2022-08-15 08:00 10.84 µg/m3 79.98 µg/m3 8.25 µg/m3 28.19 °C N/A 998.40 mbar 2.13 m/s 162.25 Deg 1.54 µg/m3
2022-08-15 07:00 20.39 µg/m3 64.16 µg/m3 6.47 µg/m3 26.89 °C N/A 998.36 mbar 0.94 m/s 181.59 Deg 1.43 µg/m3
2022-08-15 06:00 13.57 µg/m3 74.31 µg/m3 9.59 µg/m3 26.29 °C N/A 997.73 mbar 1.42 m/s 159.17 Deg 0.79 µg/m3
2022-08-15 05:00 8.79 µg/m3 75.93 µg/m3 9.93 µg/m3 25.84 °C N/A 997.62 mbar 1.01 m/s 191.68 Deg 0.45 µg/m3
2022-08-15 04:00 11.9 µg/m3 62.77 µg/m3 9.5 µg/m3 25.95 °C N/A 997.70 mbar 0.79 m/s 25.59 Deg 0.38 µg/m3
2022-08-15 03:00 14.9 µg/m3 64.13 µg/m3 7.04 µg/m3 25.96 °C N/A 997.62 mbar 0.64 m/s 84.68 Deg 2.23 µg/m3
2022-08-15 02:00 9.38 µg/m3 68.47 µg/m3 15.34 µg/m3 26.28 °C N/A 997.82 mbar 0.47 m/s 237.83 Deg 0.61 µg/m3
2022-08-15 01:00 9.82 µg/m3 72.72 µg/m3 33.85 µg/m3 26.6 °C N/A 997.88 mbar 0.5 m/s 240.05 Deg 0.23 µg/m3
2022-08-15 00:00 10.95 µg/m3 77.15 µg/m3 19.08 µg/m3 27 °C N/A 998.07 mbar 0.47 m/s 338.36 Deg 0.21 µg/m3
2022-08-14 23:00 8.38 µg/m3 89.37 µg/m3 14.22 µg/m3 27.38 °C N/A 997.85 mbar 0.59 m/s 79.59 Deg 0.19 µg/m3
2022-08-14 22:00 9.26 µg/m3 86.08 µg/m3 7.81 µg/m3 27.5 °C N/A 997.85 mbar 0.79 m/s 181.43 Deg 0.45 µg/m3
2022-08-14 21:00 7.53 µg/m3 89.58 µg/m3 5.09 µg/m3 27.91 °C N/A 997.48 mbar 0.78 m/s 313.83 Deg 0.35 µg/m3
2022-08-14 20:00 5.5 µg/m3 94.96 µg/m3 4.39 µg/m3 28.27 °C N/A 996.82 mbar 1.25 m/s 311.93 Deg 0.32 µg/m3
2022-08-14 19:00 6.78 µg/m3 99.41 µg/m3 6.94 µg/m3 29.51 °C N/A 996.23 mbar 1.2 m/s 316.48 Deg 0.42 µg/m3
2022-08-14 18:00 5.64 µg/m3 99.98 µg/m3 7.34 µg/m3 31.23 °C N/A 995.87 mbar 1.22 m/s 315.12 Deg 0.72 µg/m3
2022-08-14 17:00 3.85 µg/m3 102.61 µg/m3 5.7 µg/m3 32.27 °C N/A 995.88 mbar 1.06 m/s 324.5 Deg 0.48 µg/m3
2022-08-14 16:00 3.23 µg/m3 98.03 µg/m3 6.04 µg/m3 32.69 °C N/A 996.18 mbar 1.06 m/s 245.08 Deg 0.53 µg/m3
2022-08-14 15:00 3.1 µg/m3 94.73 µg/m3 5.81 µg/m3 32.33 °C N/A 996.52 mbar 1.66 m/s 245.97 Deg 0.54 µg/m3
2022-08-14 14:00 2.72 µg/m3 89.89 µg/m3 4.69 µg/m3 32.35 °C N/A 996.96 mbar 1.27 m/s 322.57 Deg 0.61 µg/m3
2022-08-14 13:00 2.99 µg/m3 90.13 µg/m3 4.94 µg/m3 32.15 °C N/A 997.26 mbar 1.42 m/s 332.72 Deg 0.59 µg/m3
2022-08-14 12:00 2.65 µg/m3 89.32 µg/m3 3.41 µg/m3 31.68 °C N/A 997.67 mbar 1.48 m/s 322.1 Deg 0.56 µg/m3
2022-08-14 11:00 3.23 µg/m3 89.72 µg/m3 5 µg/m3 31.6 °C N/A 997.89 mbar 1.33 m/s 252.44 Deg 0.62 µg/m3
2022-08-14 10:00 2.67 µg/m3 89.05 µg/m3 7.38 µg/m3 31.27 °C N/A 997.95 mbar 1.53 m/s 327.82 Deg 0.63 µg/m3
2022-08-14 09:00 3.07 µg/m3 89.2 µg/m3 6.66 µg/m3 30.29 °C N/A 997.83 mbar 1.77 m/s 302.32 Deg 0.68 µg/m3
2022-08-14 08:00 3.83 µg/m3 87.29 µg/m3 4.2 µg/m3 29.33 °C N/A 997.42 mbar 1.55 m/s 301.69 Deg 0.72 µg/m3
2022-08-14 07:00 5.58 µg/m3 82.97 µg/m3 3.33 µg/m3 27.26 °C N/A 997.51 mbar 1.94 m/s 289.84 Deg 0.74 µg/m3
2022-08-14 06:00 3.2 µg/m3 79.28 µg/m3 2.5 µg/m3 26.4 °C N/A 997.83 mbar 1.19 m/s 296.82 Deg 0.58 µg/m3
2022-08-14 05:00 4.39 µg/m3 79.08 µg/m3 2.31 µg/m3 26.28 °C N/A 998.13 mbar 1.06 m/s 302.88 Deg 0.34 µg/m3
2022-08-14 04:00 3.51 µg/m3 79.51 µg/m3 3.03 µg/m3 26.38 °C N/A 998.42 mbar 1.34 m/s 292.38 Deg 0.41 µg/m3
2022-08-14 03:00 6.77 µg/m3 84.42 µg/m3 2.88 µg/m3 26.63 °C N/A 998.76 mbar 1.44 m/s 300.08 Deg 1.15 µg/m3
2022-08-14 02:00 1.91 µg/m3 84.81 µg/m3 2.75 µg/m3 26.73 °C N/A 999.17 mbar 1.37 m/s 307.02 Deg 0.51 µg/m3
2022-08-14 01:00 3.94 µg/m3 83.07 µg/m3 2.44 µg/m3 26.83 °C N/A 999.60 mbar 1.75 m/s 301.28 Deg 0.39 µg/m3
2022-08-14 00:00 3.27 µg/m3 84.74 µg/m3 3.79 µg/m3 26.84 °C N/A 999.95 mbar 1.44 m/s 312.16 Deg 0.36 µg/m3
2022-08-13 23:00 3.08 µg/m3 86.9 µg/m3 5.24 µg/m3 27.03 °C N/A 999.88 mbar 1.35 m/s 306.33 Deg 0.23 µg/m3
2022-08-13 22:00 2.95 µg/m3 90.5 µg/m3 4.73 µg/m3 27.22 °C N/A 999.87 mbar 1.95 m/s 298.15 Deg 0.39 µg/m3
2022-08-13 21:00 3.24 µg/m3 94.01 µg/m3 4.2 µg/m3 27.34 °C N/A 999.68 mbar 1.94 m/s 293.65 Deg 0.37 µg/m3
2022-08-13 20:00 4.52 µg/m3 92.31 µg/m3 4.94 µg/m3 27.57 °C N/A 999.62 mbar 1.88 m/s 288.53 Deg 0.4 µg/m3
2022-08-13 19:00 3.76 µg/m3 94.57 µg/m3 6.68 µg/m3 27.97 °C N/A 999.26 mbar 1.99 m/s 295.45 Deg 0.28 µg/m3
2022-08-13 18:00 3.12 µg/m3 96.52 µg/m3 4.49 µg/m3 29.06 °C N/A 999.20 mbar 2.19 m/s 287 Deg 0.43 µg/m3
2022-08-13 17:00 3.09 µg/m3 102.04 µg/m3 4.3 µg/m3 30.02 °C N/A 999.46 mbar 2.01 m/s 300.23 Deg 0.42 µg/m3
2022-08-13 16:00 2.55 µg/m3 100.29 µg/m3 6.51 µg/m3 30.05 °C N/A 999.99 mbar 1.85 m/s 314.35 Deg 0.54 µg/m3
2022-08-13 15:00 2.9 µg/m3 96.57 µg/m3 6.98 µg/m3 30 °C N/A 1,000.60 mbar 1.85 m/s 319.35 Deg 0.58 µg/m3
2022-08-13 14:00 3.23 µg/m3 96.77 µg/m3 4.24 µg/m3 30.34 °C N/A 1,000.79 mbar 1.73 m/s 320.2 Deg 0.53 µg/m3
2022-08-13 13:00 4.19 µg/m3 103.74 µg/m3 4.88 µg/m3 30.17 °C N/A 1,001.01 mbar 2.09 m/s 314.1 Deg 0.77 µg/m3
2022-08-13 12:00 4.53 µg/m3 105.35 µg/m3 4.69 µg/m3 30.06 °C N/A 1,001.35 mbar 1.89 m/s 317.28 Deg 0.63 µg/m3
2022-08-13 11:00 6.79 µg/m3 102.81 µg/m3 5.79 µg/m3 29.67 °C N/A 1,001.47 mbar 1.48 m/s 337.07 Deg 0.86 µg/m3
2022-08-13 10:00 7.39 µg/m3 101.11 µg/m3 5.98 µg/m3 29.17 °C N/A 1,001.27 mbar 1.5 m/s 326.82 Deg 1.07 µg/m3
2022-08-13 09:00 6.6 µg/m3 96.41 µg/m3 7.81 µg/m3 28.44 °C N/A 1,001.02 mbar 1.29 m/s 338.81 Deg 0.81 µg/m3
2022-08-13 08:00 13.13 µg/m3 87.38 µg/m3 12.45 µg/m3 27.44 °C N/A 1,000.86 mbar 0.98 m/s 322.39 Deg 0.82 µg/m3
2022-08-13 07:00 46.04 µg/m3 33.46 µg/m3 11.5 µg/m3 25.2 °C N/A 1,000.55 mbar 0.69 m/s 273.15 Deg 10.06 µg/m3
2022-08-13 06:00 28.19 µg/m3 41.22 µg/m3 9.33 µg/m3 23.86 °C N/A 1,000.47 mbar 0.31 m/s 299.41 Deg 0.56 µg/m3
2022-08-13 05:00 13.49 µg/m3 60.64 µg/m3 7.15 µg/m3 23.93 °C N/A 1,000.31 mbar 0.43 m/s 336.25 Deg 0.13 µg/m3
2022-08-13 04:00 15.66 µg/m3 69.04 µg/m3 6.07 µg/m3 24.28 °C N/A 1,000.41 mbar 0.73 m/s 339.43 Deg 0.2 µg/m3
2022-08-13 03:00 13.94 µg/m3 76.95 µg/m3 5.32 µg/m3 24.87 °C N/A 1,000.15 mbar 0.61 m/s 184.06 Deg 1.79 µg/m3
2022-08-13 02:00 7.83 µg/m3 89.08 µg/m3 3.67 µg/m3 25.56 °C N/A 1,000.26 mbar 1.02 m/s 25 Deg 0.55 µg/m3
2022-08-13 01:00 11.11 µg/m3 86.33 µg/m3 3.37 µg/m3 26.32 °C N/A 1,000.60 mbar 1.22 m/s 16.68 Deg 0.27 µg/m3

It is to be noted that the data is provisional and subject to quality assurance procedures. For validated data kindly refer your request to contact.air@era.org.mt